sensor_id;sensor_type;location;lat;lon;timestamp;temperature;humidity
4312;DHT22;2169;49.086;9.284;2023-07-31T00:02:24;18.30;57.90
4312;DHT22;2169;49.086;9.284;2023-07-31T00:04:51;18.30;58.10
4312;DHT22;2169;49.086;9.284;2023-07-31T00:07:19;18.30;58.20
4312;DHT22;2169;49.086;9.284;2023-07-31T00:09:46;18.30;58.30
4312;DHT22;2169;49.086;9.284;2023-07-31T00:12:12;18.20;58.30
4312;DHT22;2169;49.086;9.284;2023-07-31T00:14:39;18.20;58.50
4312;DHT22;2169;49.086;9.284;2023-07-31T00:17:06;18.20;58.60
4312;DHT22;2169;49.086;9.284;2023-07-31T00:19:33;18.20;58.80
4312;DHT22;2169;49.086;9.284;2023-07-31T00:21:59;18.20;58.90
4312;DHT22;2169;49.086;9.284;2023-07-31T00:24:27;18.20;59.00
4312;DHT22;2169;49.086;9.284;2023-07-31T00:26:54;18.20;59.10
4312;DHT22;2169;49.086;9.284;2023-07-31T00:29:21;18.10;59.20
4312;DHT22;2169;49.086;9.284;2023-07-31T00:31:47;18.10;59.40
4312;DHT22;2169;49.086;9.284;2023-07-31T00:34:14;18.00;59.30
4312;DHT22;2169;49.086;9.284;2023-07-31T00:36:41;18.00;59.40
4312;DHT22;2169;49.086;9.284;2023-07-31T00:39:07;18.00;59.60
4312;DHT22;2169;49.086;9.284;2023-07-31T00:41:35;18.00;59.60
4312;DHT22;2169;49.086;9.284;2023-07-31T00:44:02;17.90;59.60
4312;DHT22;2169;49.086;9.284;2023-07-31T00:46:29;17.90;59.80
4312;DHT22;2169;49.086;9.284;2023-07-31T00:48:56;17.80;59.90
4312;DHT22;2169;49.086;9.284;2023-07-31T00:51:23;17.80;59.90
4312;DHT22;2169;49.086;9.284;2023-07-31T00:53:50;17.70;59.90
4312;DHT22;2169;49.086;9.284;2023-07-31T00:56:19;17.70;60.00
4312;DHT22;2169;49.086;9.284;2023-07-31T00:58:47;17.70;60.10
4312;DHT22;2169;49.086;9.284;2023-07-31T01:01:15;17.70;60.00
4312;DHT22;2169;49.086;9.284;2023-07-31T01:03:42;17.70;60.10
4312;DHT22;2169;49.086;9.284;2023-07-31T01:06:15;17.70;60.10
4312;DHT22;2169;49.086;9.284;2023-07-31T01:08:49;17.70;60.10
4312;DHT22;2169;49.086;9.284;2023-07-31T01:11:22;17.70;60.10
4312;DHT22;2169;49.086;9.284;2023-07-31T01:13:51;17.70;60.10
4312;DHT22;2169;49.086;9.284;2023-07-31T01:16:17;17.60;60.00
4312;DHT22;2169;49.086;9.284;2023-07-31T01:18:44;17.60;60.10
4312;DHT22;2169;49.086;9.284;2023-07-31T01:21:31;17.60;60.80
4312;DHT22;2169;49.086;9.284;2023-07-31T01:24:19;17.60;60.10
4312;DHT22;2169;49.086;9.284;2023-07-31T01:26:53;17.50;60.10
4312;DHT22;2169;49.086;9.284;2023-07-31T01:29:26;17.50;60.20
4312;DHT22;2169;49.086;9.284;2023-07-31T01:31:57;17.50;60.20
4312;DHT22;2169;49.086;9.284;2023-07-31T01:34:27;17.50;60.30
4312;DHT22;2169;49.086;9.284;2023-07-31T01:36:55;17.50;60.30
4312;DHT22;2169;49.086;9.284;2023-07-31T01:39:22;17.50;60.40
4312;DHT22;2169;49.086;9.284;2023-07-31T01:41:50;17.50;60.40
4312;DHT22;2169;49.086;9.284;2023-07-31T01:44:17;17.50;60.40
4312;DHT22;2169;49.086;9.284;2023-07-31T01:46:44;17.50;60.50
4312;DHT22;2169;49.086;9.284;2023-07-31T01:49:10;17.50;60.50
4312;DHT22;2169;49.086;9.284;2023-07-31T01:51:37;17.50;60.50
4312;DHT22;2169;49.086;9.284;2023-07-31T01:54:04;17.50;60.50
4312;DHT22;2169;49.086;9.284;2023-07-31T01:56:31;17.50;60.40
4312;DHT22;2169;49.086;9.284;2023-07-31T01:58:59;17.40;60.30
4312;DHT22;2169;49.086;9.284;2023-07-31T02:01:25;17.50;60.40
4312;DHT22;2169;49.086;9.284;2023-07-31T02:03:52;17.50;60.40
4312;DHT22;2169;49.086;9.284;2023-07-31T02:06:19;17.50;60.50
4312;DHT22;2169;49.086;9.284;2023-07-31T02:08:46;17.50;60.50
4312;DHT22;2169;49.086;9.284;2023-07-31T02:11:13;17.40;60.40
4312;DHT22;2169;49.086;9.284;2023-07-31T02:13:39;17.40;60.40
4312;DHT22;2169;49.086;9.284;2023-07-31T02:16:07;17.40;60.40
4312;DHT22;2169;49.086;9.284;2023-07-31T02:18:34;17.40;60.40
4312;DHT22;2169;49.086;9.284;2023-07-31T02:21:01;17.40;60.40
4312;DHT22;2169;49.086;9.284;2023-07-31T02:23:27;17.40;60.50
4312;DHT22;2169;49.086;9.284;2023-07-31T02:25:54;17.30;60.50
4312;DHT22;2169;49.086;9.284;2023-07-31T02:28:21;17.30;60.60
4312;DHT22;2169;49.086;9.284;2023-07-31T02:30:47;17.30;60.60
4312;DHT22;2169;49.086;9.284;2023-07-31T02:33:17;17.30;60.60
4312;DHT22;2169;49.086;9.284;2023-07-31T02:35:44;17.40;61.40
4312;DHT22;2169;49.086;9.284;2023-07-31T02:38:11;17.30;60.70
4312;DHT22;2169;49.086;9.284;2023-07-31T02:40:39;17.30;60.70
4312;DHT22;2169;49.086;9.284;2023-07-31T02:43:06;17.30;60.80
4312;DHT22;2169;49.086;9.284;2023-07-31T02:45:33;17.30;60.80
4312;DHT22;2169;49.086;9.284;2023-07-31T02:48:00;17.30;61.00
4312;DHT22;2169;49.086;9.284;2023-07-31T02:50:28;17.30;61.00
4312;DHT22;2169;49.086;9.284;2023-07-31T02:52:55;17.30;61.00
4312;DHT22;2169;49.086;9.284;2023-07-31T02:55:22;17.20;61.00
4312;DHT22;2169;49.086;9.284;2023-07-31T02:57:48;17.30;61.10
4312;DHT22;2169;49.086;9.284;2023-07-31T03:00:15;17.20;61.00
4312;DHT22;2169;49.086;9.284;2023-07-31T03:02:42;17.20;61.00
4312;DHT22;2169;49.086;9.284;2023-07-31T03:05:09;17.30;61.10
4312;DHT22;2169;49.086;9.284;2023-07-31T03:07:37;17.20;61.00
4312;DHT22;2169;49.086;9.284;2023-07-31T03:10:04;17.20;61.10
4312;DHT22;2169;49.086;9.284;2023-07-31T03:12:31;17.20;61.10
4312;DHT22;2169;49.086;9.284;2023-07-31T03:14:58;17.20;61.20
4312;DHT22;2169;49.086;9.284;2023-07-31T03:17:24;17.20;61.20
4312;DHT22;2169;49.086;9.284;2023-07-31T03:19:51;17.20;61.40
4312;DHT22;2169;49.086;9.284;2023-07-31T03:22:18;17.20;61.40
4312;DHT22;2169;49.086;9.284;2023-07-31T03:24:46;17.20;61.40
4312;DHT22;2169;49.086;9.284;2023-07-31T03:27:13;17.20;61.50
4312;DHT22;2169;49.086;9.284;2023-07-31T03:29:39;17.20;61.50
4312;DHT22;2169;49.086;9.284;2023-07-31T03:32:06;17.20;61.50
4312;DHT22;2169;49.086;9.284;2023-07-31T03:34:33;17.10;61.60
4312;DHT22;2169;49.086;9.284;2023-07-31T03:37:00;17.20;61.70
4312;DHT22;2169;49.086;9.284;2023-07-31T03:39:26;17.10;61.60
4312;DHT22;2169;49.086;9.284;2023-07-31T03:41:55;17.20;61.80
4312;DHT22;2169;49.086;9.284;2023-07-31T03:44:21;17.10;61.70
4312;DHT22;2169;49.086;9.284;2023-07-31T03:46:48;17.10;61.70
4312;DHT22;2169;49.086;9.284;2023-07-31T03:49:15;17.10;61.80
4312;DHT22;2169;49.086;9.284;2023-07-31T03:51:41;17.00;61.80
4312;DHT22;2169;49.086;9.284;2023-07-31T03:54:08;17.00;61.80
4312;DHT22;2169;49.086;9.284;2023-07-31T03:56:35;17.00;61.90
4312;DHT22;2169;49.086;9.284;2023-07-31T03:59:05;17.10;62.00
4312;DHT22;2169;49.086;9.284;2023-07-31T04:01:31;17.00;62.00
4312;DHT22;2169;49.086;9.284;2023-07-31T04:03:58;17.00;62.00
4312;DHT22;2169;49.086;9.284;2023-07-31T04:06:25;17.00;62.10
4312;DHT22;2169;49.086;9.284;2023-07-31T04:08:51;17.00;62.20
4312;DHT22;2169;49.086;9.284;2023-07-31T04:11:18;17.00;62.20
4312;DHT22;2169;49.086;9.284;2023-07-31T04:13:45;16.90;62.10
4312;DHT22;2169;49.086;9.284;2023-07-31T04:16:13;16.90;62.10
4312;DHT22;2169;49.086;9.284;2023-07-31T04:18:40;16.90;62.20
4312;DHT22;2169;49.086;9.284;2023-07-31T04:21:06;16.90;62.30
4312;DHT22;2169;49.086;9.284;2023-07-31T04:23:33;16.90;62.20
4312;DHT22;2169;49.086;9.284;2023-07-31T04:26:00;16.90;62.30
4312;DHT22;2169;49.086;9.284;2023-07-31T04:28:26;16.90;62.30
4312;DHT22;2169;49.086;9.284;2023-07-31T04:30:53;16.90;62.40
4312;DHT22;2169;49.086;9.284;2023-07-31T04:33:21;16.80;62.40
4312;DHT22;2169;49.086;9.284;2023-07-31T04:35:52;16.90;62.50
4312;DHT22;2169;49.086;9.284;2023-07-31T04:38:19;16.90;62.50
4312;DHT22;2169;49.086;9.284;2023-07-31T04:40:46;16.90;62.50
4312;DHT22;2169;49.086;9.284;2023-07-31T04:43:12;16.80;62.50
4312;DHT22;2169;49.086;9.284;2023-07-31T04:45:39;16.90;62.60
4312;DHT22;2169;49.086;9.284;2023-07-31T04:48:08;16.90;62.70
4312;DHT22;2169;49.086;9.284;2023-07-31T04:50:36;16.90;62.70
4312;DHT22;2169;49.086;9.284;2023-07-31T04:53:03;16.90;62.60
4312;DHT22;2169;49.086;9.284;2023-07-31T04:55:30;16.90;62.60
4312;DHT22;2169;49.086;9.284;2023-07-31T04:57:58;16.90;62.60
4312;DHT22;2169;49.086;9.284;2023-07-31T05:00:25;16.90;62.50
4312;DHT22;2169;49.086;9.284;2023-07-31T05:02:52;17.00;62.60
4312;DHT22;2169;49.086;9.284;2023-07-31T05:05:19;17.00;62.50
4312;DHT22;2169;49.086;9.284;2023-07-31T05:07:47;17.00;62.50
4312;DHT22;2169;49.086;9.284;2023-07-31T05:10:14;17.00;62.40
4312;DHT22;2169;49.086;9.284;2023-07-31T05:12:41;17.00;62.40
4312;DHT22;2169;49.086;9.284;2023-07-31T05:15:09;17.10;62.50
4312;DHT22;2169;49.086;9.284;2023-07-31T05:17:35;17.00;62.50
4312;DHT22;2169;49.086;9.284;2023-07-31T05:20:03;17.00;62.40
4312;DHT22;2169;49.086;9.284;2023-07-31T05:22:30;17.10;62.50
4312;DHT22;2169;49.086;9.284;2023-07-31T05:24:58;17.10;62.40
4312;DHT22;2169;49.086;9.284;2023-07-31T05:27:25;17.10;62.40
4312;DHT22;2169;49.086;9.284;2023-07-31T05:29:52;17.10;62.40
4312;DHT22;2169;49.086;9.284;2023-07-31T05:32:19;17.10;62.30
4312;DHT22;2169;49.086;9.284;2023-07-31T05:34:46;17.20;62.40
4312;DHT22;2169;49.086;9.284;2023-07-31T05:37:13;17.20;62.40
4312;DHT22;2169;49.086;9.284;2023-07-31T05:39:40;17.20;62.30
4312;DHT22;2169;49.086;9.284;2023-07-31T05:42:09;17.20;62.20
4312;DHT22;2169;49.086;9.284;2023-07-31T05:44:35;17.30;62.20
4312;DHT22;2169;49.086;9.284;2023-07-31T05:47:03;17.30;62.20
4312;DHT22;2169;49.086;9.284;2023-07-31T05:49:30;17.30;62.20
4312;DHT22;2169;49.086;9.284;2023-07-31T05:51:57;17.40;62.10
4312;DHT22;2169;49.086;9.284;2023-07-31T05:54:24;17.40;62.10
4312;DHT22;2169;49.086;9.284;2023-07-31T05:56:51;17.40;62.00
4312;DHT22;2169;49.086;9.284;2023-07-31T05:59:20;17.40;62.00
4312;DHT22;2169;49.086;9.284;2023-07-31T06:01:47;17.50;62.00
4312;DHT22;2169;49.086;9.284;2023-07-31T06:04:14;17.50;62.00
4312;DHT22;2169;49.086;9.284;2023-07-31T06:06:41;17.50;61.80
4312;DHT22;2169;49.086;9.284;2023-07-31T06:09:08;17.60;62.00
4312;DHT22;2169;49.086;9.284;2023-07-31T06:11:35;17.60;61.90
4312;DHT22;2169;49.086;9.284;2023-07-31T06:14:02;17.70;62.00
4312;DHT22;2169;49.086;9.284;2023-07-31T06:16:30;17.80;62.00
4312;DHT22;2169;49.086;9.284;2023-07-31T06:18:57;17.90;62.00
4312;DHT22;2169;49.086;9.284;2023-07-31T06:21:24;18.00;62.10
4312;DHT22;2169;49.086;9.284;2023-07-31T06:23:51;18.10;62.00
4312;DHT22;2169;49.086;9.284;2023-07-31T06:26:18;18.20;61.90
4312;DHT22;2169;49.086;9.284;2023-07-31T06:28:45;18.40;62.00
4312;DHT22;2169;49.086;9.284;2023-07-31T06:31:13;18.50;62.00
4312;DHT22;2169;49.086;9.284;2023-07-31T06:33:41;18.60;62.00
4312;DHT22;2169;49.086;9.284;2023-07-31T06:36:08;18.80;61.90
4312;DHT22;2169;49.086;9.284;2023-07-31T06:38:35;18.90;61.90
4312;DHT22;2169;49.086;9.284;2023-07-31T06:41:03;19.10;61.90
4312;DHT22;2169;49.086;9.284;2023-07-31T06:43:30;19.20;61.50
4312;DHT22;2169;49.086;9.284;2023-07-31T06:45:57;19.40;61.10
4312;DHT22;2169;49.086;9.284;2023-07-31T06:48:24;19.60;60.90
4312;DHT22;2169;49.086;9.284;2023-07-31T06:50:52;19.70;60.40
4312;DHT22;2169;49.086;9.284;2023-07-31T06:53:19;19.90;60.20
4312;DHT22;2169;49.086;9.284;2023-07-31T06:55:46;19.90;59.40
4312;DHT22;2169;49.086;9.284;2023-07-31T06:58:13;20.00;59.30
4312;DHT22;2169;49.086;9.284;2023-07-31T07:00:40;20.20;59.20
4312;DHT22;2169;49.086;9.284;2023-07-31T07:03:07;20.30;59.10
4312;DHT22;2169;49.086;9.284;2023-07-31T07:05:34;20.40;58.70
4312;DHT22;2169;49.086;9.284;2023-07-31T07:08:03;20.50;58.40
4312;DHT22;2169;49.086;9.284;2023-07-31T07:10:30;20.60;58.20
4312;DHT22;2169;49.086;9.284;2023-07-31T07:12:57;20.60;57.80
4312;DHT22;2169;49.086;9.284;2023-07-31T07:15:24;20.60;57.30
4312;DHT22;2169;49.086;9.284;2023-07-31T07:17:51;20.70;57.10
4312;DHT22;2169;49.086;9.284;2023-07-31T07:20:17;20.70;57.00
4312;DHT22;2169;49.086;9.284;2023-07-31T07:22:45;20.70;56.80
4312;DHT22;2169;49.086;9.284;2023-07-31T07:25:14;20.80;56.60
4312;DHT22;2169;49.086;9.284;2023-07-31T07:27:41;20.80;56.50
4312;DHT22;2169;49.086;9.284;2023-07-31T07:30:08;20.80;56.90
4312;DHT22;2169;49.086;9.284;2023-07-31T07:32:35;20.80;56.00
4312;DHT22;2169;49.086;9.284;2023-07-31T07:35:02;20.80;56.00
4312;DHT22;2169;49.086;9.284;2023-07-31T07:37:29;20.80;56.00
4312;DHT22;2169;49.086;9.284;2023-07-31T07:39:56;20.90;56.00
4312;DHT22;2169;49.086;9.284;2023-07-31T07:42:24;21.00;56.00
4312;DHT22;2169;49.086;9.284;2023-07-31T07:44:51;21.00;55.90
4312;DHT22;2169;49.086;9.284;2023-07-31T07:47:18;21.00;55.50
4312;DHT22;2169;49.086;9.284;2023-07-31T07:49:45;21.00;55.40
4312;DHT22;2169;49.086;9.284;2023-07-31T07:52:12;21.10;55.50
4312;DHT22;2169;49.086;9.284;2023-07-31T07:54:39;21.20;54.90
4312;DHT22;2169;49.086;9.284;2023-07-31T07:57:06;21.30;54.80
4312;DHT22;2169;49.086;9.284;2023-07-31T07:59:34;21.30;54.70
4312;DHT22;2169;49.086;9.284;2023-07-31T08:02:01;21.40;54.80
4312;DHT22;2169;49.086;9.284;2023-07-31T08:04:28;21.50;54.60
4312;DHT22;2169;49.086;9.284;2023-07-31T08:06:54;21.60;54.80
4312;DHT22;2169;49.086;9.284;2023-07-31T08:09:21;21.70;54.40
4312;DHT22;2169;49.086;9.284;2023-07-31T08:11:48;21.90;54.00
4312;DHT22;2169;49.086;9.284;2023-07-31T08:14:15;22.00;53.90
4312;DHT22;2169;49.086;9.284;2023-07-31T08:16:44;22.10;53.30
4312;DHT22;2169;49.086;9.284;2023-07-31T08:19:11;22.20;53.10
4312;DHT22;2169;49.086;9.284;2023-07-31T08:21:38;22.30;52.30
4312;DHT22;2169;49.086;9.284;2023-07-31T08:24:06;22.40;52.30
4312;DHT22;2169;49.086;9.284;2023-07-31T08:26:33;22.50;52.40
4312;DHT22;2169;49.086;9.284;2023-07-31T08:29:00;22.60;52.00
4312;DHT22;2169;49.086;9.284;2023-07-31T08:31:27;22.70;51.70
4312;DHT22;2169;49.086;9.284;2023-07-31T08:33:57;22.80;51.40
4312;DHT22;2169;49.086;9.284;2023-07-31T08:36:24;22.90;51.10
4312;DHT22;2169;49.086;9.284;2023-07-31T08:38:51;22.90;50.80
4312;DHT22;2169;49.086;9.284;2023-07-31T08:41:18;23.00;51.20
4312;DHT22;2169;49.086;9.284;2023-07-31T08:43:46;23.10;51.00
4312;DHT22;2169;49.086;9.284;2023-07-31T08:46:13;23.10;50.90
4312;DHT22;2169;49.086;9.284;2023-07-31T08:48:42;23.20;50.80
4312;DHT22;2169;49.086;9.284;2023-07-31T08:51:11;23.30;51.00
4312;DHT22;2169;49.086;9.284;2023-07-31T08:53:38;23.30;50.60
4312;DHT22;2169;49.086;9.284;2023-07-31T08:56:05;23.30;50.40
4312;DHT22;2169;49.086;9.284;2023-07-31T08:58:33;23.30;50.60
4312;DHT22;2169;49.086;9.284;2023-07-31T09:01:03;23.40;50.60
4312;DHT22;2169;49.086;9.284;2023-07-31T09:03:33;23.40;50.20
4312;DHT22;2169;49.086;9.284;2023-07-31T09:06:02;23.40;50.10
4312;DHT22;2169;49.086;9.284;2023-07-31T09:08:33;23.40;50.20
4312;DHT22;2169;49.086;9.284;2023-07-31T09:11:01;23.40;50.00
4312;DHT22;2169;49.086;9.284;2023-07-31T09:13:32;23.40;49.90
4312;DHT22;2169;49.086;9.284;2023-07-31T09:15:59;23.50;50.00
4312;DHT22;2169;49.086;9.284;2023-07-31T09:18:26;23.50;49.90
4312;DHT22;2169;49.086;9.284;2023-07-31T09:21:02;23.60;49.50
4312;DHT22;2169;49.086;9.284;2023-07-31T09:23:42;23.60;49.40
4312;DHT22;2169;49.086;9.284;2023-07-31T09:26:09;23.60;49.50
4312;DHT22;2169;49.086;9.284;2023-07-31T09:28:36;23.60;49.10
4312;DHT22;2169;49.086;9.284;2023-07-31T09:31:03;23.60;49.30
4312;DHT22;2169;49.086;9.284;2023-07-31T09:33:30;23.60;49.00
4312;DHT22;2169;49.086;9.284;2023-07-31T09:36:16;23.70;49.20
4312;DHT22;2169;49.086;9.284;2023-07-31T09:38:53;23.70;49.00
4312;DHT22;2169;49.086;9.284;2023-07-31T09:41:20;23.70;49.00
4312;DHT22;2169;49.086;9.284;2023-07-31T09:43:53;23.70;49.00
4312;DHT22;2169;49.086;9.284;2023-07-31T09:46:20;23.70;48.70
4312;DHT22;2169;49.086;9.284;2023-07-31T09:48:48;23.80;48.70
4312;DHT22;2169;49.086;9.284;2023-07-31T09:51:15;23.80;48.70
4312;DHT22;2169;49.086;9.284;2023-07-31T09:53:49;23.90;48.80
4312;DHT22;2169;49.086;9.284;2023-07-31T09:56:20;23.90;48.70
4312;DHT22;2169;49.086;9.284;2023-07-31T09:58:48;23.90;48.50
4312;DHT22;2169;49.086;9.284;2023-07-31T10:01:15;24.00;48.80
4312;DHT22;2169;49.086;9.284;2023-07-31T10:03:45;24.00;48.70
4312;DHT22;2169;49.086;9.284;2023-07-31T10:06:13;24.10;48.60
4312;DHT22;2169;49.086;9.284;2023-07-31T10:08:43;24.10;48.40
4312;DHT22;2169;49.086;9.284;2023-07-31T10:11:11;24.10;48.30
4312;DHT22;2169;49.086;9.284;2023-07-31T10:13:41;24.10;48.20
4312;DHT22;2169;49.086;9.284;2023-07-31T10:16:12;24.10;47.80
4312;DHT22;2169;49.086;9.284;2023-07-31T10:18:41;24.10;48.20
4312;DHT22;2169;49.086;9.284;2023-07-31T10:21:09;24.10;48.10
4312;DHT22;2169;49.086;9.284;2023-07-31T10:23:37;24.20;48.00
4312;DHT22;2169;49.086;9.284;2023-07-31T10:26:05;24.20;48.00
4312;DHT22;2169;49.086;9.284;2023-07-31T10:28:34;24.30;48.10
4312;DHT22;2169;49.086;9.284;2023-07-31T10:31:05;24.30;47.80
4312;DHT22;2169;49.086;9.284;2023-07-31T10:33:32;24.30;47.90
4312;DHT22;2169;49.086;9.284;2023-07-31T10:36:16;24.30;47.90
4312;DHT22;2169;49.086;9.284;2023-07-31T10:38:43;24.40;47.80
4312;DHT22;2169;49.086;9.284;2023-07-31T10:41:11;24.30;48.40
4312;DHT22;2169;49.086;9.284;2023-07-31T10:43:38;24.40;48.00
4312;DHT22;2169;49.086;9.284;2023-07-31T10:46:12;24.40;47.80
4312;DHT22;2169;49.086;9.284;2023-07-31T10:48:40;24.50;47.60
4312;DHT22;2169;49.086;9.284;2023-07-31T10:51:08;24.50;47.60
4312;DHT22;2169;49.086;9.284;2023-07-31T10:53:36;24.50;47.40
4312;DHT22;2169;49.086;9.284;2023-07-31T10:56:04;24.50;47.10
4312;DHT22;2169;49.086;9.284;2023-07-31T10:58:32;24.50;47.20
4312;DHT22;2169;49.086;9.284;2023-07-31T11:01:01;24.50;47.10
4312;DHT22;2169;49.086;9.284;2023-07-31T11:03:43;24.50;47.20
4312;DHT22;2169;49.086;9.284;2023-07-31T11:06:10;24.50;46.70
4312;DHT22;2169;49.086;9.284;2023-07-31T11:08:42;24.50;46.60
4312;DHT22;2169;49.086;9.284;2023-07-31T11:11:11;24.50;46.60
4312;DHT22;2169;49.086;9.284;2023-07-31T11:13:45;24.50;46.60
4312;DHT22;2169;49.086;9.284;2023-07-31T11:16:15;24.60;46.70
4312;DHT22;2169;49.086;9.284;2023-07-31T11:18:44;24.60;46.60
4312;DHT22;2169;49.086;9.284;2023-07-31T11:21:13;24.70;46.70
4312;DHT22;2169;49.086;9.284;2023-07-31T11:23:41;24.70;46.20
4312;DHT22;2169;49.086;9.284;2023-07-31T11:26:08;24.70;46.30
4312;DHT22;2169;49.086;9.284;2023-07-31T11:28:35;24.70;46.00
4312;DHT22;2169;49.086;9.284;2023-07-31T11:31:03;24.70;46.00
4312;DHT22;2169;49.086;9.284;2023-07-31T11:33:32;24.70;45.90
4312;DHT22;2169;49.086;9.284;2023-07-31T11:36:01;24.70;46.00
4312;DHT22;2169;49.086;9.284;2023-07-31T11:38:28;24.80;46.00
4312;DHT22;2169;49.086;9.284;2023-07-31T11:40:57;24.80;46.00
4312;DHT22;2169;49.086;9.284;2023-07-31T11:43:24;24.90;46.00
4312;DHT22;2169;49.086;9.284;2023-07-31T11:45:54;25.00;45.90
4312;DHT22;2169;49.086;9.284;2023-07-31T11:48:23;25.00;46.10
4312;DHT22;2169;49.086;9.284;2023-07-31T11:50:51;25.10;45.80
4312;DHT22;2169;49.086;9.284;2023-07-31T11:53:23;25.10;45.50
4312;DHT22;2169;49.086;9.284;2023-07-31T11:55:50;25.10;45.40
4312;DHT22;2169;49.086;9.284;2023-07-31T11:58:18;25.10;45.40
4312;DHT22;2169;49.086;9.284;2023-07-31T12:00:46;25.20;45.50
4312;DHT22;2169;49.086;9.284;2023-07-31T12:03:13;25.20;45.50
4312;DHT22;2169;49.086;9.284;2023-07-31T12:05:40;25.20;45.50
4312;DHT22;2169;49.086;9.284;2023-07-31T12:08:11;25.20;45.20
4312;DHT22;2169;49.086;9.284;2023-07-31T12:10:39;25.20;45.20
4312;DHT22;2169;49.086;9.284;2023-07-31T12:13:08;25.20;45.10
4312;DHT22;2169;49.086;9.284;2023-07-31T12:15:40;25.20;45.20
4312;DHT22;2169;49.086;9.284;2023-07-31T12:18:09;25.30;45.30
4312;DHT22;2169;49.086;9.284;2023-07-31T12:20:41;25.30;44.90
4312;DHT22;2169;49.086;9.284;2023-07-31T12:23:14;25.30;45.00
4312;DHT22;2169;49.086;9.284;2023-07-31T12:25:44;25.30;45.00
4312;DHT22;2169;49.086;9.284;2023-07-31T12:28:11;25.30;45.30
4312;DHT22;2169;49.086;9.284;2023-07-31T12:30:39;25.20;45.10
4312;DHT22;2169;49.086;9.284;2023-07-31T12:33:12;25.20;46.10
4312;DHT22;2169;49.086;9.284;2023-07-31T12:35:42;25.30;45.60
4312;DHT22;2169;49.086;9.284;2023-07-31T12:38:10;25.30;45.40
4312;DHT22;2169;49.086;9.284;2023-07-31T12:40:38;25.30;45.50
4312;DHT22;2169;49.086;9.284;2023-07-31T12:43:07;25.20;45.40
4312;DHT22;2169;49.086;9.284;2023-07-31T12:45:35;25.20;45.40
4312;DHT22;2169;49.086;9.284;2023-07-31T12:48:03;25.20;45.40
4312;DHT22;2169;49.086;9.284;2023-07-31T12:50:30;25.30;45.50
4312;DHT22;2169;49.086;9.284;2023-07-31T12:52:57;25.30;45.40
4312;DHT22;2169;49.086;9.284;2023-07-31T12:55:24;25.30;45.10
4312;DHT22;2169;49.086;9.284;2023-07-31T12:57:52;25.20;44.60
4312;DHT22;2169;49.086;9.284;2023-07-31T13:00:20;25.20;44.60
4312;DHT22;2169;49.086;9.284;2023-07-31T13:02:48;25.10;44.70
4312;DHT22;2169;49.086;9.284;2023-07-31T13:05:15;25.00;44.70
4312;DHT22;2169;49.086;9.284;2023-07-31T13:07:42;25.00;44.80
4312;DHT22;2169;49.086;9.284;2023-07-31T13:10:09;25.00;45.00
4312;DHT22;2169;49.086;9.284;2023-07-31T13:12:36;25.00;45.10
4312;DHT22;2169;49.086;9.284;2023-07-31T13:15:03;25.00;45.30
4312;DHT22;2169;49.086;9.284;2023-07-31T13:17:32;25.00;45.20
4312;DHT22;2169;49.086;9.284;2023-07-31T13:19:59;25.00;45.30
4312;DHT22;2169;49.086;9.284;2023-07-31T13:22:27;25.00;45.50
4312;DHT22;2169;49.086;9.284;2023-07-31T13:24:53;25.00;45.50
4312;DHT22;2169;49.086;9.284;2023-07-31T13:27:22;25.00;45.40
4312;DHT22;2169;49.086;9.284;2023-07-31T13:29:50;25.00;45.50
4312;DHT22;2169;49.086;9.284;2023-07-31T13:32:18;25.00;45.40
4312;DHT22;2169;49.086;9.284;2023-07-31T13:34:47;24.90;45.50
4312;DHT22;2169;49.086;9.284;2023-07-31T13:37:14;25.00;45.70
4312;DHT22;2169;49.086;9.284;2023-07-31T13:39:42;24.90;45.70
4312;DHT22;2169;49.086;9.284;2023-07-31T13:42:09;24.90;45.80
4312;DHT22;2169;49.086;9.284;2023-07-31T13:44:38;24.90;45.90
4312;DHT22;2169;49.086;9.284;2023-07-31T13:47:05;24.90;46.00
4312;DHT22;2169;49.086;9.284;2023-07-31T13:49:32;24.90;46.00
4312;DHT22;2169;49.086;9.284;2023-07-31T13:52:01;24.90;45.90
4312;DHT22;2169;49.086;9.284;2023-07-31T13:54:28;24.90;45.90
4312;DHT22;2169;49.086;9.284;2023-07-31T13:56:55;24.90;45.80
4312;DHT22;2169;49.086;9.284;2023-07-31T13:59:25;24.90;45.90
4312;DHT22;2169;49.086;9.284;2023-07-31T14:01:52;24.90;46.10
4312;DHT22;2169;49.086;9.284;2023-07-31T14:04:19;25.00;46.30
4312;DHT22;2169;49.086;9.284;2023-07-31T14:06:46;25.00;46.20
4312;DHT22;2169;49.086;9.284;2023-07-31T14:09:15;25.10;46.30
4312;DHT22;2169;49.086;9.284;2023-07-31T14:11:43;25.10;45.90
4312;DHT22;2169;49.086;9.284;2023-07-31T14:14:10;25.10;45.80
4312;DHT22;2169;49.086;9.284;2023-07-31T14:16:39;25.20;46.00
4312;DHT22;2169;49.086;9.284;2023-07-31T14:19:06;25.20;45.90
4312;DHT22;2169;49.086;9.284;2023-07-31T14:21:34;25.20;45.60
4312;DHT22;2169;49.086;9.284;2023-07-31T14:24:01;25.20;45.50
4312;DHT22;2169;49.086;9.284;2023-07-31T14:26:29;25.20;45.40
4312;DHT22;2169;49.086;9.284;2023-07-31T14:28:56;25.20;45.50
4312;DHT22;2169;49.086;9.284;2023-07-31T14:31:23;25.20;45.60
4312;DHT22;2169;49.086;9.284;2023-07-31T14:33:50;25.20;45.80
4312;DHT22;2169;49.086;9.284;2023-07-31T14:36:17;25.20;45.80
4312;DHT22;2169;49.086;9.284;2023-07-31T14:38:44;25.20;45.90
4312;DHT22;2169;49.086;9.284;2023-07-31T14:41:11;25.20;46.60
4312;DHT22;2169;49.086;9.284;2023-07-31T14:43:40;25.20;45.90
4312;DHT22;2169;49.086;9.284;2023-07-31T14:46:08;25.20;46.10
4312;DHT22;2169;49.086;9.284;2023-07-31T14:48:35;25.20;46.00
4312;DHT22;2169;49.086;9.284;2023-07-31T14:51:02;25.20;45.90
4312;DHT22;2169;49.086;9.284;2023-07-31T14:53:29;25.20;45.90
4312;DHT22;2169;49.086;9.284;2023-07-31T14:55:59;25.20;45.70
4312;DHT22;2169;49.086;9.284;2023-07-31T14:58:26;25.20;45.70
4312;DHT22;2169;49.086;9.284;2023-07-31T15:00:54;25.20;45.70
4312;DHT22;2169;49.086;9.284;2023-07-31T15:03:22;25.10;45.80
4312;DHT22;2169;49.086;9.284;2023-07-31T15:05:50;25.10;45.80
4312;DHT22;2169;49.086;9.284;2023-07-31T15:08:17;25.10;45.90
4312;DHT22;2169;49.086;9.284;2023-07-31T15:10:44;25.10;46.10
4312;DHT22;2169;49.086;9.284;2023-07-31T15:13:11;25.10;46.20
4312;DHT22;2169;49.086;9.284;2023-07-31T15:15:38;25.00;46.20
4312;DHT22;2169;49.086;9.284;2023-07-31T15:18:07;25.10;46.40
4312;DHT22;2169;49.086;9.284;2023-07-31T15:20:34;25.10;46.50
4312;DHT22;2169;49.086;9.284;2023-07-31T15:23:01;25.10;46.60
4312;DHT22;2169;49.086;9.284;2023-07-31T15:25:27;25.10;46.70
4312;DHT22;2169;49.086;9.284;2023-07-31T15:27:54;25.10;46.80
4312;DHT22;2169;49.086;9.284;2023-07-31T15:30:21;25.10;46.80
4312;DHT22;2169;49.086;9.284;2023-07-31T15:32:49;25.20;46.90
4312;DHT22;2169;49.086;9.284;2023-07-31T15:35:18;25.20;46.70
4312;DHT22;2169;49.086;9.284;2023-07-31T15:37:44;25.20;46.70
4312;DHT22;2169;49.086;9.284;2023-07-31T15:40:11;25.20;46.70
4312;DHT22;2169;49.086;9.284;2023-07-31T15:42:38;25.30;47.40
4312;DHT22;2169;49.086;9.284;2023-07-31T15:45:08;25.30;46.90
4312;DHT22;2169;49.086;9.284;2023-07-31T15:47:35;25.30;46.70
4312;DHT22;2169;49.086;9.284;2023-07-31T15:50:02;25.30;46.60
4312;DHT22;2169;49.086;9.284;2023-07-31T15:52:31;25.30;46.70
4312;DHT22;2169;49.086;9.284;2023-07-31T15:54:57;25.30;46.50
4312;DHT22;2169;49.086;9.284;2023-07-31T15:57:24;25.30;46.50
4312;DHT22;2169;49.086;9.284;2023-07-31T15:59:51;25.40;46.60
4312;DHT22;2169;49.086;9.284;2023-07-31T16:02:17;25.40;46.30
4312;DHT22;2169;49.086;9.284;2023-07-31T16:04:44;25.40;46.20
4312;DHT22;2169;49.086;9.284;2023-07-31T16:07:11;25.40;46.00